Flight Track Log - Related Links

Times and Time Zones

All times are in EDT time to prevent confusion due to time zone crossing. See the AAL1890 flight status page for this flight to view local times or setup timezone preferences in your user account.


Time Position Orientation Groundspeed Altitude Reporting Facility
EDT Latitude Longitude Course Direction KTS MPH feet Rate Location/Type
Fri 03:10:42 PM 32.8500 -97.0333 67° East 183 211 3,300  Level Dallas / Fort Worth TRACON
Fri 03:11:42 PM 32.8000 -97.0000 151° Southeast 220 253 6,100 2,343 Climbing Dallas / Fort Worth TRACON
Fri 03:12:00 PM 32.8006 -96.7150 68° East  Level FlightAware Approximate
Fri 03:13:00 PM 32.8568 -96.5866 59° Northeast  Level FlightAware Approximate
Fri 03:13:31 PM 32.7694 -96.8550 104° East 322 371 9,900  Level Fort Worth Center
Fri 03:14:00 PM 32.9149 -96.4591 67° East  Level FlightAware Approximate
Fri 03:14:30 PM 32.8064 -96.7386 69° East 316 364 11,000  Level Fort Worth Center
Fri 03:15:00 PM 32.9634 -96.3258 67° East  Level FlightAware Approximate
Fri 03:15:31 PM 32.8558 -96.6219 63° Northeast 371 427 13,100  Level Fort Worth Center
Fri 03:16:31 PM 32.9031 -96.5028 65° Northeast 390 449 14,800 1,750 Climbing Fort Worth Center
Fri 03:17:31 PM 32.9522 -96.3761 65° Northeast 411 473 16,600 1,600 Climbing Fort Worth Center
Fri 03:18:31 PM 32.9825 -96.2394 75° East 427 491 18,000 1,600 Climbing Fort Worth Center
Fri 03:19:31 PM 33.0019 -96.0931 81° East 444 511 19,800 1,800 Climbing Fort Worth Center
Fri 03:20:31 PM 33.0272 -95.9392 79° East 458 527 21,600 1,850 Climbing Fort Worth Center
Fri 03:21:31 PM 33.0442 -95.7828 83° East 472 543 23,500 1,750 Climbing Fort Worth Center
Fri 03:22:31 PM 33.0650 -95.6211 81° East 484 557 25,100 1,450 Climbing Fort Worth Center
Fri 03:23:31 PM 33.0961 -95.4817 75° East 484 557 26,400 1,462 Climbing Fort Worth Center
Fri 03:24:30 PM 33.1439 -95.3244 70° East 489 563 28,000 1,650 Climbing Fort Worth Center
Fri 03:25:31 PM 33.1931 -95.1619 70° East 502 578 29,700 1,600 Climbing Fort Worth Center
Fri 03:26:30 PM 33.2403 -95.0017 71° East 507 583 31,200 1,600 Climbing Fort Worth Center
Fri 03:27:31 PM 33.2894 -94.8414 70° East 507 583 32,900 1,587 Climbing Fort Worth Center
Fri 03:28:31 PM 33.3361 -94.6833 70° East 507 583 34,400 1,450 Climbing Fort Worth Center
Fri 03:29:31 PM 33.3847 -94.5203 70° East 507 583 35,800 1,150 Climbing Fort Worth Center
Fri 03:30:31 PM 33.4308 -94.3594 71° East 507 583 36,700 650 Climbing Fort Worth Center
Fri 03:31:31 PM 33.4853 -94.1981 68° East 507 583 37,100 150 Climbing Fort Worth Center
Fri 03:32:31 PM 33.5372 -94.0317 69° East 518 596 37,000 -50 Descending Fort Worth Center
Fri 03:33:31 PM 33.5994 -93.8600 66° East 518 596 37,000  Level Fort Worth Center
Fri 03:34:31 PM 33.6614 -93.7000 65° Northeast 518 596 37,000  Level Fort Worth Center
Fri 03:35:31 PM 33.7175 -93.5478 66° East 507 583 37,000  Level Fort Worth Center
Fri 03:36:21 PM 33.7636 -93.4306 65° Northeast 499 574 37,000  Level Memphis Center
Fri 03:37:21 PM 33.8236 -93.2778 65° Northeast 499 574 37,000  Level Memphis Center
Fri 03:38:21 PM 33.8833 -93.1219 65° Northeast 499 574 37,000  Level Memphis Center
Fri 03:39:21 PM 33.9431 -92.9661 65° Northeast 499 574 37,000  Level Memphis Center
Fri 03:40:21 PM 34.0006 -92.8100 66° East 504 580 37,000  Level Memphis Center
Fri 03:41:21 PM 34.0619 -92.6564 64° Northeast 504 580 37,000  Level Memphis Center
Fri 03:42:21 PM 34.1192 -92.4822 68° East 499 574 37,000  Level Memphis Center
Fri 03:43:21 PM 34.1761 -92.3256 66° East 499 574 37,000  Level Memphis Center
Fri 03:44:21 PM 34.2328 -92.1711 66° East 499 574 37,000  Level Memphis Center
Fri 03:45:21 PM 34.2889 -92.0214 66° East 494 568 37,000  Level Memphis Center
Fri 03:46:21 PM 34.3453 -91.8689 66° East 500 575 37,000  Level Memphis Center
Fri 03:47:21 PM 34.4011 -91.7189 66° East 495 570 37,000  Level Memphis Center
Fri 03:48:21 PM 34.4569 -91.5661 66° East 489 563 37,000  Level Memphis Center
Fri 03:49:21 PM 34.5083 -91.4308 65° Northeast 484 557 37,000  Level Memphis Center
Fri 03:50:21 PM 34.5594 -91.2800 68° East 484 557 37,000  Level Memphis Center
Fri 03:51:21 PM 34.6128 -91.1344 66° East 478 550 37,000  Level Memphis Center
Fri 03:52:21 PM 34.6658 -90.9833 67° East 478 550 37,000  Level Memphis Center
Fri 03:53:21 PM 34.7206 -90.8347 66° East 478 550 37,000  Level Memphis Center
Fri 03:54:21 PM 34.7711 -90.6883 67° East 473 544 37,000  Level Memphis Center
Fri 03:55:21 PM 34.8300 -90.5267 66° East 473 544 37,000  Level Memphis Center
Fri 03:56:21 PM 34.8800 -90.3772 68° East 473 544 37,000  Level Memphis Center
Fri 03:57:21 PM 34.9322 -90.2306 66° East 473 544 37,000  Level Memphis Center
Fri 03:58:21 PM 34.9842 -90.0858 66° East 472 543 37,000  Level Memphis Center
Fri 03:59:21 PM 35.0589 -89.9564 55° Northeast 464 534 37,000  Level Memphis Center
Fri 04:00:21 PM 35.1669 -89.8769 31° Northeast 437 503 37,000  Level Memphis Center
Fri 04:01:21 PM 35.2731 -89.7975 31° Northeast 442 509 37,000  Level Memphis Center
Fri 04:02:21 PM 35.3686 -89.7231 32° Northeast 447 514 37,000  Level Memphis Center
Fri 04:03:21 PM 35.4789 -89.6431 31° Northeast 452 520 37,000  Level Memphis Center
Fri 04:04:21 PM 35.5908 -89.5606 31° Northeast 458 527 37,000  Level Memphis Center
Fri 04:05:21 PM 35.7050 -89.4750 31° Northeast 458 527 37,000  Level Memphis Center
Fri 04:06:21 PM 35.8150 -89.3894 32° Northeast 451 519 37,000  Level Memphis Center
Fri 04:07:21 PM 35.9247 -89.3061 32° Northeast 456 525 37,000  Level Memphis Center
Fri 04:08:21 PM 36.0386 -89.2225 31° Northeast 456 525 37,000  Level Memphis Center
Fri 04:09:21 PM 36.1400 -89.1439 32° Northeast 469 540 37,000  Level Memphis Center
Fri 04:10:21 PM 36.2561 -89.0572 31° Northeast 469 540 37,000  Level Memphis Center
Fri 04:11:21 PM 36.3678 -88.9731 31° Northeast 469 540 37,000  Level Memphis Center
Fri 04:12:21 PM 36.4833 -88.8858 31° Northeast 469 540 37,000  Level Memphis Center
Fri 04:13:21 PM 36.5989 -88.7983 31° Northeast 469 540 37,000  Level Memphis Center
Fri 04:14:21 PM 36.7147 -88.7133 30° Northeast 469 540 37,000  Level Memphis Center
Fri 04:15:21 PM 36.8344 -88.6383 27° Northeast 474 545 37,000  Level Memphis Center
Fri 04:16:22 PM 36.9564 -88.5681 25° Northeast 469 540 37,000  Level Memphis Center
Fri 04:17:21 PM 37.0717 -88.4744 33° Northeast 476 548 37,000  Level Memphis Center
Fri 04:19:24 PM 37.3131 -88.2725 34° Northeast 497 572 37,000  Level Indianapolis Center
Fri 04:20:26 PM 37.4289 -88.1764 33° Northeast 496 571 37,000  Level Indianapolis Center
Fri 04:21:28 PM 37.5469 -88.0797 33° Northeast 497 572 37,000  Level Indianapolis Center
Fri 04:22:30 PM 37.6633 -87.9825 33° Northeast 496 571 37,000  Level Indianapolis Center
Fri 04:23:32 PM 37.7983 -87.8711 33° Northeast 500 575 37,000  Level Indianapolis Center
Fri 04:24:34 PM 37.9142 -87.7717 34° Northeast 500 575 37,000  Level Indianapolis Center
Fri 04:25:37 PM 38.0108 -87.6386 47° Northeast 512 589 37,000  Level Indianapolis Center
Fri 04:26:39 PM 38.0994 -87.4917 53° Northeast 521 600 37,000  Level Indianapolis Center
Fri 04:27:41 PM 38.1906 -87.3489 51° Northeast 519 597 37,000  Level Indianapolis Center
Fri 04:28:43 PM 38.2797 -87.2081 51° Northeast 517 595 37,000  Level Indianapolis Center
Fri 04:29:45 PM 38.3864 -87.0408 51° Northeast 519 597 37,000  Level Indianapolis Center
Fri 04:30:47 PM 38.4711 -86.9044 52° Northeast 519 597 37,000  Level Indianapolis Center
Fri 04:31:49 PM 38.5617 -86.7586 52° Northeast 522 601 37,000  Level Indianapolis Center
Fri 04:32:51 PM 38.6525 -86.6128 51° Northeast 521 600 37,000  Level Indianapolis Center
Fri 04:33:53 PM 38.7428 -86.4667 52° Northeast 522 601 37,000  Level Indianapolis Center
Fri 04:34:55 PM 38.8506 -86.2897 52° Northeast 523 602 37,000  Level Indianapolis Center
Fri 04:35:57 PM 38.9444 -86.1358 52° Northeast 530 610 37,000  Level Indianapolis Center
Fri 04:36:59 PM 39.0353 -85.9886 52° Northeast 527 606 37,000  Level Indianapolis Center
Fri 04:38:01 PM 39.1267 -85.8383 52° Northeast 530 610 37,000  Level Indianapolis Center
Fri 04:39:03 PM 39.2169 -85.6861 53° Northeast 532 612 37,000  Level Indianapolis Center
Fri 04:40:05 PM 39.3078 -85.5344 52° Northeast 534 615 37,000  Level Indianapolis Center
Fri 04:41:07 PM 39.4194 -85.3658 49° Northeast 529 609 37,000  Level Indianapolis Center
Fri 04:42:09 PM 39.5158 -85.2203 49° Northeast 529 609 37,000 48 Level Indianapolis Center
Fri 04:43:11 PM 39.6089 -85.0808 49° Northeast 514 592 37,100 677 Climbing Indianapolis Center
Fri 04:44:13 PM 39.7008 -84.9444 49° Northeast 503 579 38,400 919 Climbing Indianapolis Center
Fri 04:45:15 PM 39.7950 -84.8019 49° Northeast 496 571 39,000 288 Climbing Indianapolis Center
Fri 04:46:18 PM 39.8822 -84.6647 50° Northeast 488 562 39,000  Level Indianapolis Center
Fri 04:47:20 PM 39.9733 -84.5281 49° Northeast 491 565 39,000  Level Indianapolis Center
Fri 04:48:22 PM 40.0639 -84.3894 49° Northeast 495 570 39,000  Level Indianapolis Center
Fri 04:49:24 PM 40.1542 -84.2500 50° Northeast 496 571 39,000  Level Indianapolis Center
Fri 04:50:26 PM 40.2614 -84.0850 50° Northeast 501 577 39,000  Level Indianapolis Center
Fri 04:51:28 PM 40.3503 -83.9386 51° Northeast 505 581 39,000  Level Indianapolis Center
Fri 04:52:30 PM 40.4358 -83.7872 53° Northeast 508 585 39,000  Level Indianapolis Center
Fri 04:53:32 PM 40.5228 -83.6381 52° Northeast 507 583 39,000  Level Indianapolis Center
Fri 04:54:34 PM 40.6089 -83.4897 53° Northeast 505 581 39,000  Level Indianapolis Center
Fri 04:55:36 PM 40.6936 -83.3403 53° Northeast 505 581 39,000  Level Indianapolis Center
Fri 04:56:38 PM 40.7817 -83.1875 53° Northeast 500 575 39,000  Level Indianapolis Center
Fri 04:57:40 PM 40.8653 -83.0408 53° Northeast 496 571 39,000  Level Indianapolis Center
Fri 04:58:42 PM 40.9500 -82.8925 53° Northeast 500 575 39,000  Level Indianapolis Center
Fri 04:59:45 PM 41.0456 -82.7222 53° Northeast 497 572 39,000  Level Cleveland Center
Fri 05:00:45 PM 41.1189 -82.5925 53° Northeast 497 572 39,000  Level Cleveland Center
Fri 05:01:45 PM 41.2006 -82.4458 53° Northeast 497 572 39,000  Level Cleveland Center
Fri 05:02:45 PM 41.2822 -82.2992 53° Northeast 497 572 39,000  Level Cleveland Center
Fri 05:03:45 PM 41.3592 -82.1489 56° Northeast 497 572 39,000  Level Cleveland Center
Fri 05:04:45 PM 41.4117 -81.9731 68° East 497 572 39,000  Level Cleveland Center
Fri 05:05:45 PM 41.4700 -81.7803 68° East 512 589 39,000  Level Cleveland Center
Fri 05:06:45 PM 41.5178 -81.6008 70° East 505 581 39,000  Level Cleveland Center
Fri 05:07:45 PM 41.5692 -81.4214 69° East 505 581 39,000  Level Cleveland Center
Fri 05:08:45 PM 41.6183 -81.2469 69° East 505 581 39,000  Level Cleveland Center
Fri 05:09:45 PM 41.6628 -81.0861 70° East 510 587 39,000  Level Cleveland Center
Fri 05:10:45 PM 41.7114 -80.9086 70° East 510 587 39,000  Level Cleveland Center
Fri 05:11:45 PM 41.7597 -80.7333 70° East 504 580 39,000  Level Cleveland Center
Fri 05:12:45 PM 41.8078 -80.5608 69° East 504 580 39,000  Level Cleveland Center
Fri 05:13:45 PM 41.8536 -80.3881 70° East 499 574 39,000  Level Cleveland Center
Fri 05:14:45 PM 41.9011 -80.2178 69° East 493 567 39,000  Level Cleveland Center
Fri 05:15:45 PM 41.9525 -80.0303 70° East 488 562 39,000  Level Cleveland Center
Fri 05:16:45 PM 41.9972 -79.8594 71° East 488 562 39,000  Level Cleveland Center
Fri 05:17:45 PM 42.0419 -79.6856 71° East 488 562 39,000  Level Cleveland Center
Fri 05:18:45 PM 42.0883 -79.5117 70° East 488 562 39,000  Level Cleveland Center
Fri 05:19:45 PM 42.1325 -79.3372 71° East 488 562 39,000  Level Cleveland Center
Fri 05:20:45 PM 42.1783 -79.1625 70° East 488 562 39,000  Level Cleveland Center
Fri 05:21:45 PM 42.2094 -78.9742 77° East 488 562 39,000  Level Cleveland Center
Fri 05:22:45 PM 42.2319 -78.8053 80° East 501 577 39,000  Level Cleveland Center
Fri 05:23:45 PM 42.2539 -78.6167 81° East 506 582 39,000  Level Cleveland Center
Fri 05:24:45 PM 42.2775 -78.4278 80° East 506 582 39,000  Level Cleveland Center
Fri 05:25:45 PM 42.3008 -78.2389 80° East 506 582 39,000  Level Cleveland Center
Fri 05:26:45 PM 42.3219 -78.0528 81° East 506 582 39,000  Level Cleveland Center
Fri 05:27:45 PM 42.3486 -77.8439 80° East 506 582 39,000  Level Cleveland Center
Fri 05:28:45 PM 42.3689 -77.6547 82° East 506 582 39,000  Level Cleveland Center
Fri 05:29:45 PM 42.3889 -77.4681 82° East 506 582 39,000  Level Cleveland Center
Fri 05:31:28 PM 42.4247 -77.1719 81° East 504 580 39,000  Level Boston Center
Fri 05:32:28 PM 42.4450 -76.9819 82° East 499 574 39,000  Level Boston Center
Fri 05:33:28 PM 42.4647 -76.7975 82° East 499 574 39,000  Level Boston Center
Fri 05:34:28 PM 42.4864 -76.6133 81° East 499 574 39,000  Level Boston Center
Fri 05:35:28 PM 42.5056 -76.4256 82° East 499 574 39,000  Level Boston Center
Fri 05:36:28 PM 42.5244 -76.2408 82° East 499 574 39,000  Level Boston Center
Fri 05:37:28 PM 42.5431 -76.0531 82° East 499 574 39,000  Level Boston Center
Fri 05:38:28 PM 42.5611 -75.8708 82° East 499 574 39,000 -100 Level Boston Center
Fri 05:39:28 PM 42.5811 -75.6886 81° East 499 574 38,800 -600 Descending Boston Center
Fri 05:40:28 PM 42.5967 -75.5061 83° East 494 568 37,800 -900 Descending Boston Center
Fri 05:41:28 PM 42.6142 -75.3181 83° East 494 568 37,000 -400 Descending Boston Center
Fri 05:42:28 PM 42.6311 -75.1381 83° East 494 568 37,000 -350 Level Boston Center
Fri 05:43:28 PM 42.6481 -74.9411 83° East 488 562 36,300 -850 Descending Boston Center
Fri 05:44:28 PM 42.6644 -74.7556 83° East 488 562 35,300 -1,000 Descending Boston Center
Fri 05:45:28 PM 42.6825 -74.5781 82° East 482 555 34,300 -950 Descending Boston Center
Fri 05:46:28 PM 42.6983 -74.3922 83° East 482 555 33,400 -650 Descending Boston Center
Fri 05:47:28 PM 42.7139 -74.2089 83° East 482 555 33,000 -200 Descending Boston Center
Fri 05:48:28 PM 42.7292 -74.0258 83° East 482 555 33,000 -200 Level Boston Center
Fri 05:49:28 PM 42.7419 -73.8422 85° East 482 555 32,600 -850 Descending Boston Center
Fri 05:50:28 PM 42.7358 -73.6556 92° East 482 555 31,300 -1,300 Descending Boston Center
Fri 05:51:28 PM 42.7167 -73.4686 98° East 482 555 30,000 -1,300 Descending Boston Center
Fri 05:52:28 PM 42.6933 -73.2847 100° East 488 562 28,700 -1,350 Descending Boston Center
Fri 05:53:28 PM 42.6736 -73.1036 98° East 488 562 27,300 -1,300 Descending Boston Center
Fri 05:54:28 PM 42.6536 -72.9144 98° East 488 562 26,100 -1,200 Descending Boston Center
Fri 05:55:28 PM 42.6333 -72.7478 99° East 481 554 24,900 -1,550 Descending Boston Center
Fri 05:56:28 PM 42.6192 -72.5811 97° East 461 531 23,000 -2,150 Descending Boston Center
Fri 05:57:28 PM 42.5900 -72.4119 103° East 449 517 20,600 -2,250 Descending Boston Center
Fri 05:58:28 PM 42.5733 -72.2681 99° East 446 513 18,500 -2,050 Descending Boston Center
Fri 05:59:28 PM 42.5500 -72.0992 101° East 418 481 16,500 -1,950 Descending Boston Center
Fri 06:00:28 PM 42.5347 -71.9611 98° East 408 470 14,600 -1,850 Descending Boston Center
Fri 06:01:28 PM 42.5217 -71.8006 96° East 403 464 12,800 -1,650 Descending Boston Center
Fri 06:02:28 PM 42.5103 -71.6739 97° East 383 441 11,300 -1,350 Descending Boston Center
Fri 06:03:28 PM 42.5000 -71.5167 95° East 353 406 10,100 -905 Descending KA90
Fri 06:04:34 PM 42.4833 -71.3833 100° East 309 356 9,400 -709 Descending KA90
Fri 06:05:35 PM 42.4667 -71.2833 103° East 300 345 8,600 -835 Descending KA90
Fri 06:06:29 PM 42.4667 -71.1833 90° East 294 338 7,800 -789 Descending KA90
Fri 06:07:29 PM 42.4500 -71.0833 103° East 276 318 7,100 -550 Descending KA90
Fri 06:08:29 PM 42.4167 -71.0000 118° Southeast 234 269 6,700 -550 Descending KA90
Fri 06:09:29 PM 42.3667 -70.9667 154° Southeast 229 264 6,000 -350 Descending KA90
Fri 06:10:29 PM 42.3000 -70.9333 160° South 216 249 6,000 -53 Level KA90
Fri 06:11:23 PM 42.2667 -70.9500 200° South 215 247 5,900 -450 Descending KA90
Fri 06:12:29 PM 42.2000 -70.9833 200° South 217 250 5,100 -500 Descending KA90
Fri 06:13:23 PM 42.1500 -71.0167 206° Southwest 211 243 4,900 -600 Descending KA90
Fri 06:14:29 PM 42.1500 -71.0833 270° West 227 261 3,900 -909 Descending KA90

Login

Don't have an account? Register now (free) for customized features, flight alerts, and more!